createdAt,value
2023-04-16T00:01:56.170Z,1.42
2023-04-16T00:04:23.187Z,1.40
2023-04-16T00:06:50.116Z,1.30
2023-04-16T00:09:16.759Z,1.20
2023-04-16T00:11:43.395Z,1.23
2023-04-16T00:14:10.071Z,1.50
2023-04-16T00:16:36.896Z,1.40
2023-04-16T00:19:03.556Z,1.50
2023-04-16T00:21:31.206Z,1.33
2023-04-16T00:23:58.025Z,1.33
2023-04-16T00:26:24.686Z,1.35
2023-04-16T00:28:51.448Z,1.70
2023-04-16T00:31:18.194Z,1.40
2023-04-16T00:33:44.867Z,1.33
2023-04-16T00:36:11.674Z,1.30
2023-04-16T00:38:38.320Z,2.13
2023-04-16T00:41:05.083Z,1.30
2023-04-16T00:43:31.772Z,1.38
2023-04-16T00:45:58.670Z,1.10
2023-04-16T00:48:28.136Z,1.30
2023-04-16T00:50:55.668Z,1.48
2023-04-16T00:53:22.574Z,1.40
2023-04-16T00:55:49.278Z,1.25
2023-04-16T00:58:16.571Z,1.30
2023-04-16T01:00:43.208Z,1.30
2023-04-16T01:03:10.496Z,1.60
2023-04-16T01:05:37.386Z,1.20
2023-04-16T01:08:04.200Z,1.23
2023-04-16T01:10:31.696Z,1.00
2023-04-16T01:12:58.373Z,1.42
2023-04-16T01:15:25.042Z,1.08
2023-04-16T01:17:51.745Z,1.00
2023-04-16T01:20:18.643Z,0.98
2023-04-16T01:22:45.316Z,1.38
2023-04-16T01:25:16.216Z,1.08
2023-04-16T01:27:42.902Z,1.20
2023-04-16T01:30:09.952Z,1.38
2023-04-16T01:32:48.071Z,1.20
2023-04-16T01:35:14.869Z,1.30
2023-04-16T01:37:41.712Z,1.35
2023-04-16T01:40:10.747Z,1.10
2023-04-16T01:42:38.580Z,1.42
2023-04-16T01:45:06.277Z,1.30
2023-04-16T01:47:33.047Z,1.38
2023-04-16T01:50:00.610Z,1.20
2023-04-16T01:52:27.366Z,1.30
2023-04-16T01:54:53.999Z,1.38
2023-04-16T01:57:20.649Z,1.38
2023-04-16T01:59:47.306Z,1.40
2023-04-16T02:02:16.249Z,1.40
2023-04-16T02:04:45.324Z,1.15
2023-04-16T02:07:12.606Z,1.30
2023-04-16T02:09:40.835Z,1.50
2023-04-16T02:12:07.960Z,1.50
2023-04-16T02:14:34.710Z,1.40
2023-04-16T02:17:01.953Z,1.40
2023-04-16T02:19:37.388Z,1.30
2023-04-16T02:22:04.774Z,1.50
2023-04-16T02:24:31.393Z,1.40
2023-04-16T02:27:00.021Z,1.40
2023-04-16T02:29:26.693Z,1.60
2023-04-16T02:32:03.640Z,1.38
2023-04-16T02:34:33.684Z,1.48
2023-04-16T02:37:00.528Z,1.60
2023-04-16T02:39:27.316Z,1.75
2023-04-16T02:41:54.384Z,1.80
2023-04-16T02:44:21.335Z,1.52
2023-04-16T02:46:48.002Z,2.00
2023-04-16T02:49:14.757Z,1.80
2023-04-16T02:51:41.427Z,1.50
2023-04-16T02:54:08.132Z,1.60
2023-04-16T02:56:34.859Z,1.63
2023-04-16T02:59:01.512Z,1.63
2023-04-16T03:01:29.077Z,1.85
2023-04-16T03:03:56.158Z,1.70
2023-04-16T03:06:22.896Z,1.88
2023-04-16T03:08:49.583Z,1.45
2023-04-16T03:11:16.327Z,1.60
2023-04-16T03:13:43.924Z,1.80
2023-04-16T03:16:11.139Z,1.90
2023-04-16T03:18:37.994Z,1.80
2023-04-16T03:21:05.159Z,1.88
2023-04-16T03:23:32.173Z,2.08
2023-04-16T03:25:58.819Z,1.80
2023-04-16T03:28:26.296Z,2.17
2023-04-16T03:30:53.760Z,1.80
2023-04-16T03:33:20.997Z,2.03
2023-04-16T03:35:47.724Z,1.98
2023-04-16T03:38:14.588Z,2.10
2023-04-16T03:40:41.442Z,1.98
2023-04-16T03:43:08.948Z,2.15
2023-04-16T03:45:36.081Z,1.75
2023-04-16T03:48:02.746Z,3.30
2023-04-16T03:50:30.644Z,1.70
2023-04-16T03:52:57.394Z,1.98
2023-04-16T03:55:24.012Z,1.80
2023-04-16T03:57:50.750Z,1.75
2023-04-16T04:00:17.550Z,1.58
2023-04-16T04:02:57.916Z,1.58
2023-04-16T04:05:24.786Z,1.77
2023-04-16T04:07:52.364Z,1.63
2023-04-16T04:10:18.980Z,1.60
2023-04-16T04:12:45.884Z,1.55
2023-04-16T04:15:12.799Z,1.50
2023-04-16T04:17:39.519Z,1.40
2023-04-16T04:20:06.827Z,1.70
2023-04-16T04:22:33.577Z,1.60
2023-04-16T04:25:00.671Z,1.35
2023-04-16T04:27:29.738Z,1.50
2023-04-16T04:29:56.979Z,1.60
2023-04-16T04:32:24.651Z,1.52
2023-04-16T04:34:51.616Z,1.60
2023-04-16T04:37:18.264Z,1.75
2023-04-16T04:39:45.189Z,1.60
2023-04-16T04:42:12.533Z,1.60
2023-04-16T04:44:40.731Z,1.50
2023-04-16T04:47:08.350Z,1.50
2023-04-16T04:49:35.496Z,1.60
2023-04-16T04:52:02.980Z,1.50
2023-04-16T04:54:31.680Z,1.20
2023-04-16T04:56:58.483Z,1.30
2023-04-16T04:59:25.654Z,1.52
2023-04-16T05:01:52.525Z,1.52
2023-04-16T05:04:19.498Z,1.55
2023-04-16T05:06:46.274Z,1.55
2023-04-16T05:09:12.910Z,1.85
2023-04-16T05:11:42.220Z,1.60
2023-04-16T05:14:08.908Z,1.58
2023-04-16T05:16:38.474Z,1.65
2023-04-16T05:19:05.377Z,1.50
2023-04-16T05:21:32.022Z,1.73
2023-04-16T05:23:58.966Z,1.65
2023-04-16T05:26:25.631Z,1.60
2023-04-16T05:28:52.451Z,1.60
2023-04-16T05:31:19.294Z,1.50
2023-04-16T05:33:46.141Z,1.63
2023-04-16T05:36:12.769Z,1.70
2023-04-16T05:38:39.443Z,1.52
2023-04-16T05:41:06.254Z,1.50
2023-04-16T05:43:33.120Z,1.40
2023-04-16T05:45:59.751Z,1.60
2023-04-16T05:48:26.345Z,1.58
2023-04-16T05:50:53.858Z,1.58
2023-04-16T05:53:20.561Z,1.30
2023-04-16T05:55:47.197Z,1.50
2023-04-16T05:58:13.856Z,1.58
2023-04-16T06:00:40.992Z,1.60
2023-04-16T06:03:07.811Z,2.00
2023-04-16T06:05:35.009Z,2.47
2023-04-16T06:08:01.713Z,2.95
2023-04-16T06:10:28.459Z,3.95
2023-04-16T06:12:55.375Z,3.40
2023-04-16T06:15:22.068Z,3.28
2023-04-16T06:17:49.831Z,2.22
2023-04-16T06:20:16.679Z,2.60
2023-04-16T06:22:43.343Z,2.35
2023-04-16T06:25:10.196Z,2.33
2023-04-16T06:27:37.161Z,2.13
2023-04-16T06:30:04.174Z,2.15
2023-04-16T06:32:31.192Z,1.80
2023-04-16T06:34:58.824Z,1.92
2023-04-16T06:37:25.667Z,1.80
2023-04-16T06:39:52.357Z,1.80
2023-04-16T06:42:19.040Z,1.75
2023-04-16T06:44:46.402Z,1.70
2023-04-16T06:47:13.048Z,1.60
2023-04-16T06:49:40.372Z,1.42
2023-04-16T06:52:07.105Z,1.60
2023-04-16T06:54:33.917Z,1.50
2023-04-16T06:57:00.698Z,1.42
2023-04-16T06:59:27.395Z,1.40
2023-04-16T07:01:54.173Z,1.48
2023-04-16T07:04:21.217Z,1.40
2023-04-16T07:06:47.919Z,1.50
2023-04-16T07:09:14.622Z,1.70
2023-04-16T07:11:41.991Z,1.45
2023-04-16T07:14:08.685Z,1.38
2023-04-16T07:16:37.670Z,1.40
2023-04-16T07:19:04.578Z,1.40
2023-04-16T07:21:31.812Z,1.48
2023-04-16T07:23:58.486Z,1.35
2023-04-16T07:26:25.091Z,1.58
2023-04-16T07:28:51.769Z,1.30
2023-04-16T07:31:18.511Z,1.60
2023-04-16T07:33:45.122Z,1.20
2023-04-16T07:36:11.819Z,1.50
2023-04-16T07:38:38.576Z,1.30
2023-04-16T07:41:05.518Z,2.30
2023-04-16T07:43:32.120Z,1.40
2023-04-16T07:45:58.862Z,1.60
2023-04-16T07:48:26.054Z,1.40
2023-04-16T07:50:52.750Z,1.30
2023-04-16T07:53:19.490Z,1.50
2023-04-16T07:55:46.085Z,1.85
2023-04-16T07:58:12.733Z,1.40
2023-04-16T08:00:40.041Z,1.52
2023-04-16T08:03:06.941Z,2.90
2023-04-16T08:05:33.630Z,2.33
2023-04-16T08:08:00.306Z,3.78
2023-04-16T08:10:27.551Z,4.03
2023-04-16T08:12:54.286Z,2.25
2023-04-16T08:15:21.241Z,3.95
2023-04-16T08:17:47.981Z,2.35
2023-04-16T08:20:17.644Z,4.28
2023-04-16T08:22:46.465Z,4.50
2023-04-16T08:25:13.119Z,2.92
2023-04-16T08:27:39.825Z,2.58
2023-04-16T08:30:07.366Z,2.17
2023-04-16T08:32:34.216Z,3.25
2023-04-16T08:35:01.007Z,3.53
2023-04-16T08:37:27.689Z,2.47
2023-04-16T08:39:54.362Z,3.33
2023-04-16T08:42:34.562Z,1.77
2023-04-16T08:45:11.313Z,2.25
2023-04-16T08:47:38.924Z,2.60
2023-04-16T08:50:06.388Z,3.50
2023-04-16T08:52:34.758Z,3.05
2023-04-16T08:55:06.531Z,3.40
2023-04-16T08:57:49.630Z,2.58
2023-04-16T09:00:16.751Z,2.58
2023-04-16T09:02:43.761Z,4.00
2023-04-16T09:05:11.391Z,2.35
2023-04-16T09:07:38.605Z,2.70
2023-04-16T09:10:07.472Z,2.30
2023-04-16T09:12:34.834Z,2.80
2023-04-16T09:15:03.733Z,2.17
2023-04-16T09:17:31.348Z,2.53
2023-04-16T09:19:57.998Z,1.85
2023-04-16T09:22:24.711Z,1.50
2023-04-16T09:24:51.342Z,2.20
2023-04-16T09:27:18.264Z,1.75
2023-04-16T09:29:44.933Z,1.58
2023-04-16T09:32:12.071Z,2.30
2023-04-16T09:35:08.450Z,2.50
2023-04-16T09:37:35.151Z,2.20
2023-04-16T09:40:04.097Z,3.22
2023-04-16T09:42:32.731Z,1.48
2023-04-16T09:45:01.990Z,2.17
2023-04-16T09:47:43.826Z,2.97
2023-04-16T09:50:17.761Z,1.70
2023-04-16T09:52:50.774Z,1.98
2023-04-16T09:55:22.872Z,4.63
2023-04-16T09:57:49.530Z,1.38
2023-04-16T10:00:18.750Z,1.48
2023-04-16T10:02:46.548Z,1.50
2023-04-16T10:05:16.963Z,1.20
2023-04-16T10:07:43.797Z,2.00
2023-04-16T10:10:10.739Z,1.90
2023-04-16T10:12:37.415Z,2.97
2023-04-16T10:15:04.989Z,1.88
2023-04-16T10:17:31.793Z,1.20
2023-04-16T10:19:58.873Z,1.00
2023-04-16T10:22:26.576Z,1.92
2023-04-16T10:24:53.560Z,1.60
2023-04-16T10:27:20.754Z,2.38
2023-04-16T10:29:48.011Z,1.63
2023-04-16T10:32:14.977Z,1.10
2023-04-16T10:34:41.799Z,1.48
2023-04-16T10:37:08.494Z,1.23
2023-04-16T10:39:38.955Z,2.33
2023-04-16T10:42:10.316Z,1.60
2023-04-16T10:44:37.174Z,1.65
2023-04-16T10:47:11.141Z,1.10
2023-04-16T10:49:37.797Z,1.73
2023-04-16T10:52:12.459Z,2.10
2023-04-16T10:54:40.280Z,1.10
2023-04-16T10:57:09.720Z,2.47
2023-04-16T10:59:37.892Z,1.40
2023-04-16T11:02:12.371Z,1.25
2023-04-16T11:04:41.926Z,2.60
2023-04-16T11:07:14.480Z,3.55
2023-04-16T11:09:57.530Z,1.90
2023-04-16T11:12:27.667Z,3.50
2023-04-16T11:14:58.313Z,2.67
2023-04-16T11:17:29.029Z,3.35
2023-04-16T11:19:56.016Z,3.22
2023-04-16T11:22:22.678Z,3.70
2023-04-16T11:24:54.385Z,2.72
2023-04-16T11:27:21.059Z,3.45
2023-04-16T11:29:57.298Z,5.43
2023-04-16T11:32:24.030Z,6.40
2023-04-16T11:34:50.662Z,5.38
2023-04-16T11:37:22.016Z,7.40
2023-04-16T11:39:52.589Z,9.25
2023-04-16T11:42:22.745Z,8.82
2023-04-16T11:44:56.966Z,9.48
2023-04-16T11:47:24.609Z,11.25
2023-04-16T11:49:51.747Z,9.75
2023-04-16T11:52:29.315Z,11.20
2023-04-16T11:54:56.593Z,9.38
2023-04-16T11:57:30.637Z,10.50
2023-04-16T12:00:01.934Z,10.63
2023-04-16T12:02:48.908Z,9.70
2023-04-16T12:05:34.032Z,11.73
2023-04-16T12:10:29.121Z,7.57
2023-04-16T12:13:16.143Z,31.13
2023-04-16T12:15:53.581Z,56.45
2023-04-16T12:18:26.200Z,27.15
2023-04-16T12:20:56.108Z,23.20
2023-04-16T12:23:33.927Z,21.98
2023-04-16T12:26:10.639Z,30.70
2023-04-16T12:28:40.873Z,25.88
2023-04-16T12:31:07.967Z,32.13
2023-04-16T12:33:34.850Z,29.63
2023-04-16T12:36:03.548Z,28.90
2023-04-16T12:38:30.291Z,28.08
2023-04-16T12:40:58.312Z,23.30
2023-04-16T12:43:25.924Z,28.98
2023-04-16T12:45:52.756Z,26.73
2023-04-16T12:48:19.419Z,27.85
2023-04-16T12:50:46.269Z,32.25
2023-04-16T12:53:12.904Z,26.20
2023-04-16T12:55:39.503Z,35.63
2023-04-16T12:58:06.685Z,30.58
2023-04-16T13:00:33.316Z,37.20
2023-04-16T13:03:00.243Z,33.70
2023-04-16T13:05:27.223Z,38.83
2023-04-16T13:07:54.191Z,36.47
2023-04-16T13:10:21.955Z,37.95
2023-04-16T13:12:48.987Z,35.10
2023-04-16T13:15:15.801Z,35.75
2023-04-16T13:17:42.506Z,34.08
2023-04-16T13:20:09.970Z,34.08
2023-04-16T13:22:36.982Z,32.15
2023-04-16T13:25:03.817Z,33.17
2023-04-16T13:27:32.095Z,29.10
2023-04-16T13:29:58.803Z,28.15
2023-04-16T13:32:25.556Z,31.70
2023-04-16T13:34:52.222Z,28.77
2023-04-16T13:37:18.991Z,25.45
2023-04-16T13:39:45.655Z,25.40
2023-04-16T13:42:12.290Z,26.13
2023-04-16T13:44:38.917Z,23.70
2023-04-16T13:47:05.742Z,23.08
2023-04-16T13:49:35.505Z,21.80
2023-04-16T13:52:02.478Z,20.85
2023-04-16T13:54:29.105Z,21.23
2023-04-16T13:56:56.040Z,21.70
2023-04-16T13:59:22.816Z,20.77
2023-04-16T14:01:49.535Z,34.30
2023-04-16T14:04:16.365Z,33.33
2023-04-16T14:06:43.065Z,26.13
2023-04-16T14:09:10.896Z,18.98
2023-04-16T14:11:37.778Z,27.02
2023-04-16T14:14:04.895Z,24.65
2023-04-16T14:16:31.593Z,23.58
2023-04-16T14:18:58.199Z,28.70
2023-04-16T14:21:24.812Z,27.17
2023-04-16T14:23:51.541Z,28.30
2023-04-16T14:26:18.412Z,23.08
2023-04-16T14:28:45.011Z,23.00
2023-04-16T14:31:11.603Z,23.30
2023-04-16T14:33:38.302Z,21.55
2023-04-16T14:36:05.397Z,25.73
2023-04-16T14:38:32.094Z,22.23
2023-04-16T14:41:00.227Z,26.23
2023-04-16T14:43:27.203Z,22.90
2023-04-16T14:45:53.886Z,21.77
2023-04-16T14:48:22.142Z,21.42
2023-04-16T14:50:48.831Z,22.83
2023-04-16T14:53:15.955Z,24.98
2023-04-16T14:55:42.534Z,24.92
2023-04-16T14:58:10.159Z,20.77
2023-04-16T15:00:36.943Z,21.80
2023-04-16T15:03:03.871Z,17.38
2023-04-16T15:05:31.680Z,15.52
2023-04-16T15:07:58.347Z,13.50
2023-04-16T15:10:24.969Z,18.45
2023-04-16T15:12:51.582Z,14.88
2023-04-16T15:15:18.158Z,16.33
2023-04-16T15:17:45.067Z,14.55
2023-04-16T15:20:12.292Z,13.30
2023-04-16T15:22:39.069Z,12.52
2023-04-16T15:25:06.779Z,11.07
2023-04-16T15:27:33.366Z,9.38
2023-04-16T15:30:00.046Z,9.65
2023-04-16T15:32:29.401Z,8.40
2023-04-16T15:34:56.061Z,8.50
2023-04-16T15:37:22.675Z,7.97
2023-04-16T15:39:49.815Z,8.07
2023-04-16T15:42:16.748Z,9.18
2023-04-16T15:44:43.317Z,7.47
2023-04-16T15:47:09.874Z,7.38
2023-04-16T15:49:36.583Z,6.95
2023-04-16T15:52:03.366Z,7.35
2023-04-16T15:54:31.107Z,5.53
2023-04-16T15:56:58.865Z,6.32
2023-04-16T15:59:28.768Z,4.55
2023-04-16T16:01:55.820Z,5.22
2023-04-16T16:04:23.167Z,4.25
2023-04-16T16:06:50.751Z,6.18
2023-04-16T16:09:17.970Z,4.97
2023-04-16T16:11:44.561Z,3.90
2023-04-16T16:14:11.243Z,4.93
2023-04-16T16:16:37.942Z,4.32
2023-04-16T16:19:04.750Z,3.65
2023-04-16T16:21:32.551Z,3.60
2023-04-16T16:23:59.184Z,5.03
2023-04-16T16:26:25.917Z,5.40
2023-04-16T16:28:52.605Z,4.38
2023-04-16T16:31:19.344Z,5.00
2023-04-16T16:33:46.008Z,3.83
2023-04-16T16:36:12.642Z,3.38
2023-04-16T16:38:42.599Z,2.72
2023-04-16T16:41:09.326Z,3.33
2023-04-16T16:43:36.767Z,7.53
2023-04-16T16:46:03.548Z,2.85
2023-04-16T16:48:30.287Z,3.05
2023-04-16T16:50:56.877Z,2.63
2023-04-16T16:53:23.512Z,2.42
2023-04-16T16:55:50.119Z,3.28
2023-04-16T16:58:16.760Z,1.80
2023-04-16T17:00:43.362Z,3.03
2023-04-16T17:03:10.283Z,2.47
2023-04-16T17:05:36.985Z,1.83
2023-04-16T17:08:03.707Z,2.28
2023-04-16T17:10:30.415Z,5.32
2023-04-16T17:12:57.315Z,16.92
2023-04-16T17:15:24.246Z,13.27
2023-04-16T17:17:50.884Z,8.65
2023-04-16T17:20:17.651Z,4.75
2023-04-16T17:22:44.312Z,2.15
2023-04-16T17:25:11.320Z,6.25
2023-04-16T17:27:37.989Z,3.78
2023-04-16T17:30:08.206Z,4.28
2023-04-16T17:32:34.943Z,6.50
2023-04-16T17:35:04.249Z,7.30
2023-04-16T17:37:31.142Z,4.53
2023-04-16T17:39:57.846Z,4.72
2023-04-16T17:42:24.842Z,3.67
2023-04-16T17:44:51.510Z,3.42
2023-04-16T17:47:18.226Z,3.38
2023-04-16T17:49:44.817Z,3.78
2023-04-16T17:52:11.383Z,2.33
2023-04-16T17:54:38.136Z,2.33
2023-04-16T17:57:04.794Z,2.33
2023-04-16T17:59:31.469Z,3.50
2023-04-16T18:01:58.309Z,1.98
2023-04-16T18:04:25.122Z,2.00
2023-04-16T18:06:51.882Z,3.38
2023-04-16T18:09:19.512Z,5.63
2023-04-16T18:11:46.206Z,4.47
2023-04-16T18:14:19.913Z,3.40
2023-04-16T18:16:48.085Z,3.45
2023-04-16T18:19:16.019Z,4.43
2023-04-16T18:21:43.291Z,3.55
2023-04-16T18:24:10.911Z,3.05
2023-04-16T18:26:41.305Z,2.63
2023-04-16T18:29:08.242Z,2.42
2023-04-16T18:31:35.911Z,2.13
2023-04-16T18:34:02.726Z,2.03
2023-04-16T18:36:29.404Z,2.83
2023-04-16T18:39:02.225Z,2.30
2023-04-16T18:41:43.720Z,2.20
2023-04-16T18:44:12.941Z,2.08
2023-04-16T18:46:39.698Z,2.08
2023-04-16T18:49:06.437Z,2.20
2023-04-16T18:51:33.198Z,2.13
2023-04-16T18:53:59.834Z,3.13
2023-04-16T18:56:26.875Z,2.20
2023-04-16T18:58:53.490Z,2.00
2023-04-16T19:01:20.491Z,2.13
2023-04-16T19:03:47.466Z,2.28
2023-04-16T19:06:14.148Z,2.20
2023-04-16T19:08:40.805Z,2.50
2023-04-16T19:11:07.389Z,2.28
2023-04-16T19:13:34.012Z,2.95
2023-04-16T19:16:01.665Z,1.80
2023-04-16T19:18:28.598Z,2.03
2023-04-16T19:20:59.565Z,1.88
2023-04-16T19:23:26.837Z,2.03
2023-04-16T19:25:53.574Z,3.40
2023-04-16T19:28:20.222Z,2.60
2023-04-16T19:30:50.237Z,2.15
2023-04-16T19:33:16.907Z,2.03
2023-04-16T19:35:43.634Z,2.53
2023-04-16T19:38:11.022Z,1.70
2023-04-16T19:40:38.310Z,2.05
2023-04-16T19:43:04.984Z,2.08
2023-04-16T19:45:31.921Z,2.55
2023-04-16T19:47:58.969Z,1.60
2023-04-16T19:50:25.627Z,1.73
2023-04-16T19:52:52.323Z,1.60
2023-04-16T19:55:19.169Z,1.60
2023-04-16T19:57:47.888Z,1.85
2023-04-16T20:00:14.957Z,1.80
2023-04-16T20:02:41.644Z,2.17
2023-04-16T20:05:08.826Z,1.40
2023-04-16T20:07:35.436Z,1.90
2023-04-16T20:10:02.955Z,1.63
2023-04-16T20:12:29.579Z,1.77
2023-04-16T20:14:56.162Z,1.98
2023-04-16T20:17:22.821Z,2.08
2023-04-16T20:19:51.255Z,5.88
2023-04-16T20:22:18.744Z,4.43
2023-04-16T20:24:47.800Z,6.70
2023-04-16T20:27:15.266Z,4.55
2023-04-16T20:29:42.390Z,3.22
2023-04-16T20:32:09.109Z,5.47
2023-04-16T20:34:36.714Z,2.85
2023-04-16T20:37:04.167Z,4.10
2023-04-16T20:39:34.244Z,4.90
2023-04-16T20:42:04.137Z,5.15
2023-04-16T20:44:50.421Z,6.35
2023-04-16T20:47:17.416Z,7.15
2023-04-16T20:49:47.331Z,7.35
2023-04-16T20:52:17.585Z,17.15
2023-04-16T20:54:44.376Z,14.73
2023-04-16T20:57:13.904Z,13.80
2023-04-16T20:59:40.530Z,13.07
2023-04-16T21:02:07.852Z,13.90
2023-04-16T21:04:34.646Z,14.75
2023-04-16T21:07:04.263Z,13.80
2023-04-16T21:09:31.514Z,12.82
2023-04-16T21:11:58.197Z,18.30
2023-04-16T21:14:24.801Z,10.73
2023-04-16T21:16:51.501Z,11.50
2023-04-16T21:19:18.111Z,11.27
2023-04-16T21:21:44.673Z,10.85
2023-04-16T21:24:11.334Z,10.80
2023-04-16T21:26:37.897Z,8.95
2023-04-16T21:29:04.524Z,10.93
2023-04-16T21:31:31.241Z,9.27
2023-04-16T21:33:57.858Z,7.53
2023-04-16T21:36:26.577Z,13.60
2023-04-16T21:38:53.205Z,9.93
2023-04-16T21:41:19.785Z,18.95
2023-04-16T21:43:46.389Z,8.75
2023-04-16T21:46:13.051Z,8.40
2023-04-16T21:48:39.697Z,9.90
2023-04-16T21:51:06.838Z,8.63
2023-04-16T21:53:34.079Z,8.68
2023-04-16T21:56:00.942Z,11.57
2023-04-16T21:58:27.777Z,7.50
2023-04-16T22:00:54.564Z,6.80
2023-04-16T22:03:26.535Z,9.32
2023-04-16T22:06:03.355Z,10.43
2023-04-16T22:08:30.277Z,11.52
2023-04-16T22:11:02.733Z,8.52
2023-04-16T22:13:32.213Z,12.32
2023-04-16T22:16:01.382Z,9.27
2023-04-16T22:18:29.043Z,10.80
2023-04-16T22:20:56.247Z,9.05
2023-04-16T22:23:25.995Z,10.30
2023-04-16T22:25:54.754Z,8.30
2023-04-16T22:28:21.910Z,8.77
2023-04-16T22:30:48.753Z,7.70
2023-04-16T22:33:15.621Z,8.27
2023-04-16T22:35:42.541Z,7.60
2023-04-16T22:38:10.114Z,12.05
2023-04-16T22:40:36.764Z,6.65
2023-04-16T22:43:03.434Z,7.53
2023-04-16T22:45:29.989Z,10.60
2023-04-16T22:47:56.614Z,7.07
2023-04-16T22:50:23.252Z,8.38
2023-04-16T22:52:49.977Z,7.15
2023-04-16T22:55:16.822Z,8.70
2023-04-16T22:57:43.464Z,7.95
2023-04-16T23:00:17.726Z,5.35
2023-04-16T23:02:44.884Z,8.02
2023-04-16T23:05:11.839Z,6.78
2023-04-16T23:07:38.533Z,5.00
2023-04-16T23:10:05.841Z,6.15
2023-04-16T23:12:32.458Z,8.20
2023-04-16T23:15:00.601Z,5.57
2023-04-16T23:17:28.099Z,5.20
2023-04-16T23:19:54.874Z,5.13
2023-04-16T23:22:21.585Z,5.68
2023-04-16T23:24:48.152Z,5.55
2023-04-16T23:27:14.723Z,4.43
2023-04-16T23:29:41.357Z,4.15
2023-04-16T23:32:07.994Z,4.60
2023-04-16T23:34:34.674Z,4.80
2023-04-16T23:37:01.362Z,6.55
2023-04-16T23:39:27.925Z,3.90
2023-04-16T23:41:54.515Z,4.88
2023-04-16T23:44:21.094Z,4.97
2023-04-16T23:46:47.751Z,4.45
2023-04-16T23:49:14.378Z,4.43
2023-04-16T23:51:41.276Z,4.75
2023-04-16T23:54:08.023Z,3.28
2023-04-16T23:56:34.613Z,4.18
2023-04-16T23:59:01.388Z,5.90
